CYOD - Cfb Cold Lake

Pirep is a free, collaborative database of all public and private airports located within the United States. All pilots are welcome to contribute, edit, and improve any airport they have local knowledge about, no registration required.
Are you familiar with this airport? Help out other pilots by adding your local knowledge.
Uploaded photos will be licensed under a CC BY-SA 4.0 license. Please only upload photos you have the rights to use.
Tags
Public
Undocu­mented
METAR / TAF
Edit Tags
Food
Camping
Lodging
Car Rental
Bicycles
Swimming
Golfing
Fishing
Hot Springs
Museum
Flying Clubs
Airpark
Upcoming Events
No upcoming events. Is anything happening here soon?
*
*
*

Where exactly on/near the airport is this event taking place?

Is there a webpage with more information for this event?

Who should be contacted for more information?

What is this event all about?

Repeat every
Description
Transient Parking
Fuel Location
Landing & Tie-down Fees
Crew Car Availability
Flying Clubs
WiFi Access
Airport Statistics
Location: Cold Lake, Alberta
Elevation: 1,775ft
Runway 13L/31R: 12,600ft
Runway 13R/31L: 10,000ft
Runway 04/22: 8,270ft
Warning: This airport was imported from a non-authoritative source. It's public/private status may not be accurate.
Access: Open to the public
Current Weather — MVFR
  • Weather data is strictly informational and not for flight planning purposes.
  • METAR
    2024-05-24 18:00:00 MDT
    Ceiling Wind Temperature Dewpoint Weather Visbility
    2,500ft 50° @ 10kt 50°F 39°F N/A 15SM
    Clouds: Broken @ 2,500ft
    Raw: CYOD 250000Z 05010KT 15SM BKN025 10/04 A2976 RMK SC7 DENSITY ALT 1810FT SLP093
  • TAF
    2024-05-24 18:00:00 MDT – 2024-05-24 21:00:00 MDT
    Ceiling Wind Weather Visbility
    2,500ft 90° @ 5kt N/A 6SM
    Clouds: Broken @ 2,500ft
    Raw: TAF CYOD 242340Z 2500/2524 09005KT P6SM BKN025 FM250300 08005KT P6SM FEW015 SCT025 PROB30 2510/2514 1/2SM FG VV002 FM251400 06005KT P6SM FEW006 BKN025 FM251900 06005KT P6SM BKN040 RMK NXT FCST BY 250300Z
  • TAF
    2024-05-24 21:00:00 MDT – 2024-05-25 08:00:00 MDT
    Ceiling Wind Weather Visbility
    Sky clear 80° @ 5kt N/A 6SM
    Clouds: Few @ 1,500ft, Scattered @ 2,500ft
    Raw: TAF CYOD 242340Z 2500/2524 09005KT P6SM BKN025 FM250300 08005KT P6SM FEW015 SCT025 PROB30 2510/2514 1/2SM FG VV002 FM251400 06005KT P6SM FEW006 BKN025 FM251900 06005KT P6SM BKN040 RMK NXT FCST BY 250300Z
  • TAF
    2024-05-25 04:00:00 MDT – 2024-05-25 08:00:00 MDT
    Ceiling Wind Weather Visbility
    200ft ° @ kt Fog 0SM
    Clouds: Obscured @ 200ft
    Raw: TAF CYOD 242340Z 2500/2524 09005KT P6SM BKN025 FM250300 08005KT P6SM FEW015 SCT025 PROB30 2510/2514 1/2SM FG VV002 FM251400 06005KT P6SM FEW006 BKN025 FM251900 06005KT P6SM BKN040 RMK NXT FCST BY 250300Z
  • TAF
    2024-05-25 08:00:00 MDT – 2024-05-25 13:00:00 MDT
    Ceiling Wind Weather Visbility
    2,500ft 60° @ 5kt N/A 6SM
    Clouds: Few @ 600ft, Broken @ 2,500ft
    Raw: TAF CYOD 242340Z 2500/2524 09005KT P6SM BKN025 FM250300 08005KT P6SM FEW015 SCT025 PROB30 2510/2514 1/2SM FG VV002 FM251400 06005KT P6SM FEW006 BKN025 FM251900 06005KT P6SM BKN040 RMK NXT FCST BY 250300Z
  • TAF
    2024-05-25 13:00:00 MDT – 2024-05-25 18:00:00 MDT
    Ceiling Wind Weather Visbility
    4,000ft 60° @ 5kt N/A 6SM
    Clouds: Broken @ 4,000ft
    Raw: TAF CYOD 242340Z 2500/2524 09005KT P6SM BKN025 FM250300 08005KT P6SM FEW015 SCT025 PROB30 2510/2514 1/2SM FG VV002 FM251400 06005KT P6SM FEW006 BKN025 FM251900 06005KT P6SM BKN040 RMK NXT FCST BY 250300Z
Click/tap to add an annotation marker to the map
Airport Webcams
No webcams added yet.
Direct links to live image URLs will be displayed inline on this page. URLs to separate webpages will be linked to.
URL:
Direct links to live image URLs will be displayed inline on this page. URLs to separate webpages will be linked to.
URL:
Comments
Leave a comment What was your experience like at this airport?